Winnipeg, Canada
Current Conditions -  °F | °C
As of 2:00 PM on Tuesday 21 Oct 2014 (Local Time) from CYWG Reporting Station
Clear Clear  
Wind Chill: 59°   Ceiling: Unl
Heat Index: 59°   Visibility: 15mi
Dew Point: 41°   Wind: 20mph
Humidity: 51%   Direction: 150°SSE
Pressure: 29.92"   Gusts: 28mph
Location:  49.9°N, 97.14°W
Report Text: CYWG 211900Z 15017G24KT 15SM SKC 15/05 A2992 RMK SLP137 DENSITY ALT 900FT
Loading
Personal Weather Stations






























Interactive Weather Map
Tropical Storm Tracking
New forecast layout! Learn more

10-Day Weather Forecast

Advertisements
Track Severe Weather on mobile